Pryor, Colorado
Current Conditions -  °F | °C
As of 3:46 PM on Tuesday 21 Oct 2014 (Local Time) from KVTP Reporting Station
Broken Clouds Broken Clouds  
Wind Chill: 42°   Ceiling: 5000
Heat Index: 46°   Visibility: 10mi
Dew Point: 32°   Wind: 8mph
Humidity: 57%   Direction: 200°SSW
Pressure: 30.25"   Gusts: 20mph
Location:  37.6936°N, 104.772°W
Report Text: KVTP 212146Z AUTO 20007G17KT 160V230 10SM BKN050 08/00 A3025 RMK AO2 LTG DSNT N
Loading
Personal Weather Stations






























Interactive Weather Map New forecast layout! Learn more

10-Day Weather Forecast

Advertisements
Track Severe Weather on mobile